| Date | Time | Temp. (oF) | Dew Point (oF) | Rel. Hum. (%) | Press. (in.) | Wind Dir. | Wind Speed (mph) | Hourly Rainfall (in.) |
|
|---|---|---|---|---|---|---|---|---|---|
| 1 | 05/01 | 00:00 | 59 | 38 | 47 | 30.10 | SE | 4 | 0.00 |
| 2 | 04/30 | 23:00 | 60 | 42 | 53 | 30.11 | SE | 9 | 0.00 |
| 3 | 04/30 | 22:00 | 62 | 45 | 54 | 30.11 | SE | 5 | 0.00 |
| 4 | 04/30 | 21:00 | 65 | 48 | 55 | 30.09 | ESE | 4 | 0.00 |
| 5 | 04/30 | 20:00 | 67 | 45 | 46 | 30.07 | S | 5 | 0.00 |
| 6 | 04/30 | 19:00 | 70 | 44 | 40 | 30.04 | SE | 5 | 0.00 |
| 7 | 04/30 | 18:00 | 72 | 46 | 40 | 30.05 | S | 4 | 0.00 |
| 8 | 04/30 | 17:00 | 73 | 44 | 36 | 30.05 | SE | 2 | 0.00 |
| 9 | 04/30 | 16:00 | 73 | 47 | 40 | 30.07 | SE | 2 | 0.00 |
| 10 | 04/30 | 15:00 | 71 | 43 | 38 | 30.11 | SSE | 3 | 0.00 |
| 11 | 04/30 | 14:00 | 69 | 42 | 39 | 30.12 | SE | 3 | 0.00 |
| 12 | 04/30 | 13:00 | 67 | 42 | 41 | 30.14 | NE | 1 | 0.00 |
| 13 | 04/30 | 12:00 | 65 | 43 | 45 | 30.16 | NE | 5 | 0.00 |
| 14 | 04/30 | 11:00 | 62 | 41 | 47 | 30.17 | N | 2 | 0.00 |
| 15 | 04/30 | 10:00 | 60 | 41 | 50 | 30.16 | NE | 4 | 0.00 |
| 16 | 04/30 | 09:00 | 57 | 38 | 50 | 30.16 | E | 4 | 0.00 |
| 17 | 04/30 | 08:00 | 53 | 39 | 59 | 30.15 | NNE | 4 | 0.00 |
| 18 | 04/30 | 07:00 | 48 | 39 | 73 | 30.11 | NNW | 3 | 0.00 |
| 19 | 04/30 | 06:00 | 48 | 40 | 76 | 30.08 | N | 2 | 0.00 |
| 20 | 04/30 | 05:00 | 51 | 40 | 67 | 30.07 | N | 4 | 0.00 |
| 21 | 04/30 | 04:00 | 54 | 40 | 61 | 30.05 | NNW | 2 | 0.00 |
| 22 | 04/30 | 03:00 | 55 | 43 | 65 | 30.03 | N | 3 | 0.00 |
| 23 | 04/30 | 02:00 | 58 | 45 | 63 | 30.02 | NNE | 4 | 0.00 |
| 24 | 04/30 | 01:00 | 58 | 45 | 64 | 29.99 | NNW | 4 | 0.00 |